Time;durP1;ratioP1;P1;durP2;ratioP2;P2;SDS_P1;SDS_P2;PMS_P1;PMS_P2;Temp;Humidity;BMP_temperature;BMP_pressure;BME280_temperature;BME280_humidity;BME280_pressure;Samples;Min_cycle;Max_cycle;Signal;HPM_P1;HPM_P2
2023/01/10 00:01:10;;;;;;;;;;;4.20;99.90;;;;;;5073304;28;20267;-73
2023/01/10 00:03:35;;;;;;;;;;;4.20;99.90;;;;;;5072908;28;19912;-73
2023/01/10 00:06:02;;;;;;;;;;;4.20;99.90;;;;;;5072271;28;19924;-73
2023/01/10 00:08:30;;;;;;;;;;;4.30;99.90;;;;;;5072120;28;19923;-73
2023/01/10 00:10:56;;;;;;;;;;;4.30;99.90;;;;;;5072982;28;19913;-73
2023/01/10 00:13:22;;;;;;;;;;;4.30;99.90;;;;;;5055763;28;19923;-73
2023/01/10 00:15:50;;;;;;;;;;;4.20;99.90;;;;;;5053949;28;19947;-73
2023/01/10 00:18:17;;;;;;;;;;;4.30;99.90;;;;;;5054042;28;19919;-73
2023/01/10 00:20:47;;;;;;;;;;;4.30;99.90;;;;;;5072143;28;20382;-73
2023/01/10 00:23:14;;;;;;;;;;;4.30;99.90;;;;;;5054480;28;19917;-73
2023/01/10 00:25:41;;;;;;;;;;;4.40;99.90;;;;;;5072125;28;20015;-73
2023/01/10 00:28:18;;;;;;;;;;;4.40;99.90;;;;;;5054868;28;19916;-73
2023/01/10 00:30:53;;;;;;;;;;;4.40;99.90;;;;;;5053895;28;19916;-73
2023/01/10 00:33:19;;;;;;;;;;;4.40;99.90;;;;;;5054467;28;19951;-73
2023/01/10 00:35:45;;;;;;;;;;;4.40;99.90;;;;;;5072270;28;19912;-73
2023/01/10 00:38:12;;;;;;;;;;;4.50;99.90;;;;;;5055274;28;19916;-73
2023/01/10 00:40:37;;;;;;;;;;;4.50;99.90;;;;;;5055108;28;19961;-73
2023/01/10 00:45:48;;;;;;;;;;;4.50;99.90;;;;;;5071269;28;19975;-73
2023/01/10 00:48:14;;;;;;;;;;;4.40;99.90;;;;;;5041218;28;19924;-74
2023/01/10 00:50:40;;;;;;;;;;;4.50;99.90;;;;;;5058023;28;20352;-73
2023/01/10 00:53:06;;;;;;;;;;;4.50;99.90;;;;;;5076201;28;19912;-73
2023/01/10 00:55:32;;;;;;;;;;;4.60;99.90;;;;;;5075765;28;19923;-74
2023/01/10 00:57:58;;;;;;;;;;;4.60;99.90;;;;;;5076269;28;19991;-73
2023/01/10 01:00:23;;;;;;;;;;;4.60;99.90;;;;;;5057506;28;19944;-73
2023/01/10 01:02:50;;;;;;;;;;;4.60;99.90;;;;;;5073261;28;19919;-73
2023/01/10 01:05:16;;;;;;;;;;;4.60;99.90;;;;;;5075207;28;20409;-73
2023/01/10 01:07:42;;;;;;;;;;;4.70;99.90;;;;;;5075508;28;20359;-73
2023/01/10 01:10:27;;;;;;;;;;;4.70;99.90;;;;;;5073918;28;19913;-73
2023/01/10 01:12:55;;;;;;;;;;;4.60;99.90;;;;;;5074473;28;19966;-73
2023/01/10 01:15:24;;;;;;;;;;;4.60;99.90;;;;;;5075186;28;19992;-73
2023/01/10 01:17:50;;;;;;;;;;;4.60;99.90;;;;;;5057231;28;20244;-73
2023/01/10 01:20:15;;;;;;;;;;;4.60;99.90;;;;;;5056907;28;19970;-73
2023/01/10 01:22:41;;;;;;;;;;;4.60;99.90;;;;;;5075293;28;19969;-73
2023/01/10 01:25:07;;;;;;;;;;;4.60;99.90;;;;;;5075428;28;20363;-73
2023/01/10 01:27:36;;;;;;;;;;;4.60;99.90;;;;;;5075183;28;19923;-72
2023/01/10 01:30:04;;;;;;;;;;;4.60;99.90;;;;;;5056826;28;19939;-73
2023/01/10 01:32:31;;;;;;;;;;;4.60;99.90;;;;;;5075316;28;20370;-73
2023/01/10 01:34:57;;;;;;;;;;;4.60;99.90;;;;;;5075504;28;19958;-73
2023/01/10 01:37:23;;;;;;;;;;;4.60;99.90;;;;;;5056891;28;19916;-73
2023/01/10 01:39:48;;;;;;;;;;;4.60;99.90;;;;;;5074705;28;19913;-73
2023/01/10 01:42:25;;;;;;;;;;;4.60;99.90;;;;;;5074612;28;20042;-73
2023/01/10 01:45:10;;;;;;;;;;;4.60;99.90;;;;;;5056671;28;19928;-73
2023/01/10 01:47:41;;;;;;;;;;;4.60;99.90;;;;;;5074834;28;19913;-73
2023/01/10 01:50:18;;;;;;;;;;;4.60;99.90;;;;;;5057435;28;19919;-73
2023/01/10 01:52:44;;;;;;;;;;;4.60;99.90;;;;;;5058510;28;19913;-73
2023/01/10 01:55:10;;;;;;;;;;;4.60;99.90;;;;;;5057982;28;20413;-73
2023/01/10 01:57:36;;;;;;;;;;;4.50;99.90;;;;;;5057214;28;19965;-73
2023/01/10 02:00:03;;;;;;;;;;;4.50;99.90;;;;;;5056628;28;19912;-73
2023/01/10 02:02:31;;;;;;;;;;;4.50;99.90;;;;;;5074424;28;20273;-72
2023/01/10 02:05:17;;;;;;;;;;;4.40;99.90;;;;;;5056485;28;19920;-73
2023/01/10 02:07:45;;;;;;;;;;;4.40;99.90;;;;;;5058623;28;20276;-73
2023/01/10 02:10:29;;;;;;;;;;;4.40;99.90;;;;;;5075075;28;19939;-73
2023/01/10 02:12:59;;;;;;;;;;;4.30;99.90;;;;;;5074451;28;20351;-73
2023/01/10 02:15:24;;;;;;;;;;;4.30;99.90;;;;;;5039362;28;19928;-73
2023/01/10 02:17:51;;;;;;;;;;;4.30;99.90;;;;;;5056238;28;19913;-73
2023/01/10 02:20:20;;;;;;;;;;;4.20;99.90;;;;;;5074149;28;19939;-73
2023/01/10 02:22:58;;;;;;;;;;;4.20;99.90;;;;;;5056194;28;20368;-73
2023/01/10 02:25:33;;;;;;;;;;;4.20;99.90;;;;;;5056224;28;19920;-73
2023/01/10 02:28:18;;;;;;;;;;;4.20;99.90;;;;;;5075508;28;19913;-73
2023/01/10 02:30:57;;;;;;;;;;;4.30;99.90;;;;;;5075027;28;19940;-73
2023/01/10 02:33:35;;;;;;;;;;;4.20;99.90;;;;;;5055618;28;19959;-73
2023/01/10 02:36:01;;;;;;;;;;;4.20;99.90;;;;;;5055467;28;20003;-73
2023/01/10 02:38:29;;;;;;;;;;;4.20;99.90;;;;;;5057075;28;19956;-73
2023/01/10 02:41:05;;;;;;;;;;;4.00;99.90;;;;;;5073407;28;19916;-73
2023/01/10 02:43:34;;;;;;;;;;;4.00;99.90;;;;;;5055654;28;19920;-73
2023/01/10 02:46:07;;;;;;;;;;;4.00;99.90;;;;;;5055370;28;19920;-73
2023/01/10 02:48:34;;;;;;;;;;;4.00;99.90;;;;;;5072396;28;19919;-73
2023/01/10 02:51:16;;;;;;;;;;;3.90;99.90;;;;;;5054901;28;19917;-73
2023/01/10 02:53:45;;;;;;;;;;;3.90;99.90;;;;;;5074469;28;19962;-73
2023/01/10 02:56:14;;;;;;;;;;;4.00;99.90;;;;;;5074166;28;19916;-73
2023/01/10 02:58:43;;;;;;;;;;;4.00;99.90;;;;;;5055267;28;19912;-73
2023/01/10 03:01:29;;;;;;;;;;;4.00;99.90;;;;;;5055543;28;19913;-73
2023/01/10 03:04:14;;;;;;;;;;;4.10;99.90;;;;;;5072548;28;19916;-73
2023/01/10 03:06:51;;;;;;;;;;;4.10;99.90;;;;;;5054226;28;20352;-73
2023/01/10 03:09:22;;;;;;;;;;;4.10;99.90;;;;;;5071374;28;20280;-73
2023/01/10 03:11:49;;;;;;;;;;;4.10;99.90;;;;;;5054393;28;20367;-73
2023/01/10 03:14:26;;;;;;;;;;;4.10;99.90;;;;;;5050938;28;19916;-73
2023/01/10 03:16:54;;;;;;;;;;;4.20;99.90;;;;;;5052736;28;19924;-73
2023/01/10 03:19:21;;;;;;;;;;;4.30;99.90;;;;;;5052585;28;19939;-73
2023/01/10 03:21:48;;;;;;;;;;;4.20;99.90;;;;;;5035010;28;20336;-73
2023/01/10 03:24:22;;;;;;;;;;;4.30;99.90;;;;;;5052749;28;19990;-73
2023/01/10 03:26:57;;;;;;;;;;;4.20;99.90;;;;;;5035075;28;19948;-73
2023/01/10 03:29:52;;;;;;;;;;;4.20;99.90;;;;;;5034832;28;20348;-73
2023/01/10 03:32:20;;;;;;;;;;;4.20;99.90;;;;;;5038928;28;19913;-73
2023/01/10 03:34:46;;;;;;;;;;;4.30;99.90;;;;;;5053097;28;19947;-73
2023/01/10 03:37:28;;;;;;;;;;;4.40;99.90;;;;;;5072396;28;20355;-73
2023/01/10 03:40:07;;;;;;;;;;;4.30;99.90;;;;;;5054959;28;19913;-73
2023/01/10 03:45:41;;;;;;;;;;;4.40;99.90;;;;;;5073385;28;20276;-73
2023/01/10 03:48:09;;;;;;;;;;;4.40;99.90;;;;;;5055708;28;19913;-73
2023/01/10 03:50:36;;;;;;;;;;;4.40;99.90;;;;;;5054918;28;19919;-73
2023/01/10 03:53:04;;;;;;;;;;;4.40;99.90;;;;;;5055700;28;20352;-72
2023/01/10 03:55:31;;;;;;;;;;;4.40;99.90;;;;;;5056223;28;19923;-73
2023/01/10 03:57:57;;;;;;;;;;;4.50;99.90;;;;;;5073827;28;19919;-72
2023/01/10 04:00:23;;;;;;;;;;;4.50;99.90;;;;;;5072108;28;19913;-73
2023/01/10 04:02:48;;;;;;;;;;;4.50;99.90;;;;;;5072588;28;19919;-73
2023/01/10 04:05:15;;;;;;;;;;;4.50;99.90;;;;;;5054739;28;19927;-73
2023/01/10 04:07:41;;;;;;;;;;;4.40;99.90;;;;;;5054470;28;20316;-73
2023/01/10 04:10:07;;;;;;;;;;;4.40;99.90;;;;;;5072470;28;19919;-73
2023/01/10 04:12:33;;;;;;;;;;;4.30;99.90;;;;;;5054318;28;20012;-73
2023/01/10 04:15:00;;;;;;;;;;;4.30;99.90;;;;;;5073023;28;19951;-73
2023/01/10 04:17:26;;;;;;;;;;;4.30;99.90;;;;;;5054672;28;19913;-73
2023/01/10 04:19:51;;;;;;;;;;;4.30;99.90;;;;;;5054582;28;19999;-73
2023/01/10 04:22:17;;;;;;;;;;;4.20;99.90;;;;;;5073381;28;19912;-73
2023/01/10 04:24:43;;;;;;;;;;;4.20;99.90;;;;;;5077883;28;20444;-73
2023/01/10 04:27:08;;;;;;;;;;;4.10;99.90;;;;;;5076371;28;19912;-73
2023/01/10 04:29:37;;;;;;;;;;;4.10;99.90;;;;;;5075728;28;20369;-73
2023/01/10 04:32:03;;;;;;;;;;;4.10;99.90;;;;;;5075638;28;19996;-73
2023/01/10 04:34:29;;;;;;;;;;;4.20;99.90;;;;;;5075602;28;20038;-73
2023/01/10 04:36:54;;;;;;;;;;;4.20;99.90;;;;;;5075947;28;19917;-73
2023/01/10 04:39:20;;;;;;;;;;;4.20;99.90;;;;;;5075972;28;20792;-72
2023/01/10 04:41:46;;;;;;;;;;;4.30;99.90;;;;;;5077541;28;19966;-73
2023/01/10 04:44:12;;;;;;;;;;;4.30;99.90;;;;;;5076240;28;19978;-73
2023/01/10 04:46:38;;;;;;;;;;;4.30;99.90;;;;;;5058280;28;20011;-73
2023/01/10 04:49:04;;;;;;;;;;;4.30;99.90;;;;;;5057914;28;20326;-73
2023/01/10 04:51:30;;;;;;;;;;;4.40;99.90;;;;;;5075706;28;19912;-73
2023/01/10 04:53:56;;;;;;;;;;;4.40;99.90;;;;;;5075867;28;20306;-73
2023/01/10 04:56:22;;;;;;;;;;;4.30;99.90;;;;;;5075310;28;19951;-73
2023/01/10 04:58:48;;;;;;;;;;;4.30;99.90;;;;;;5058682;28;19916;-73
2023/01/10 05:01:19;;;;;;;;;;;4.20;99.90;;;;;;5058247;28;19927;-73
2023/01/10 05:03:49;;;;;;;;;;;4.10;99.90;;;;;;5057653;28;19971;-73
2023/01/10 05:06:16;;;;;;;;;;;4.10;99.90;;;;;;5075209;28;20037;-73
2023/01/10 05:08:42;;;;;;;;;;;4.10;99.90;;;;;;5057227;28;19916;-73
2023/01/10 05:11:08;;;;;;;;;;;4.00;99.90;;;;;;5057525;28;20409;-73
2023/01/10 05:13:35;;;;;;;;;;;4.10;99.90;;;;;;5057453;28;19912;-72
2023/01/10 05:16:02;;;;;;;;;;;4.00;99.90;;;;;;5073830;28;19958;-73
2023/01/10 05:18:28;;;;;;;;;;;4.00;99.90;;;;;;5055213;28;20842;-72
2023/01/10 05:21:07;;;;;;;;;;;4.00;99.90;;;;;;5056388;28;19916;-72
2023/01/10 05:23:33;;;;;;;;;;;4.10;99.90;;;;;;5055990;28;20645;-73
2023/01/10 05:26:05;;;;;;;;;;;3.90;99.90;;;;;;5055570;28;19916;-73
2023/01/10 05:28:32;;;;;;;;;;;4.00;99.90;;;;;;5074880;28;19948;-72
2023/01/10 05:30:59;;;;;;;;;;;4.00;99.90;;;;;;5075844;28;19951;-73
2023/01/10 05:33:24;;;;;;;;;;;4.00;99.90;;;;;;5073302;28;19958;-72
2023/01/10 05:35:50;;;;;;;;;;;4.10;99.90;;;;;;5074027;28;19913;-73
2023/01/10 05:38:17;;;;;;;;;;;4.20;99.90;;;;;;5056723;28;20074;-73
2023/01/10 05:40:43;;;;;;;;;;;4.20;99.90;;;;;;5055579;28;19996;-73
2023/01/10 05:43:10;;;;;;;;;;;4.20;99.90;;;;;;5055276;28;20025;-73
2023/01/10 05:45:36;;;;;;;;;;;4.20;99.90;;;;;;5055777;28;19920;-73
2023/01/10 05:48:02;;;;;;;;;;;4.20;99.90;;;;;;5073356;28;19999;-72
2023/01/10 05:50:30;;;;;;;;;;;4.20;99.90;;;;;;5072605;28;19919;-73
2023/01/10 05:53:02;;;;;;;;;;;4.20;99.90;;;;;;5055393;28;20352;-74
2023/01/10 05:55:28;;;;;;;;;;;4.20;99.90;;;;;;5054454;28;20324;-74
2023/01/10 05:57:56;;;;;;;;;;;4.30;99.90;;;;;;5072266;28;19955;-74
2023/01/10 06:00:22;;;;;;;;;;;4.30;99.90;;;;;;5072911;28;20410;-74
2023/01/10 06:02:48;;;;;;;;;;;4.30;99.90;;;;;;5072466;28;19947;-74
2023/01/10 06:05:16;;;;;;;;;;;4.40;99.90;;;;;;5073481;28;19925;-74
2023/01/10 06:07:42;;;;;;;;;;;4.40;99.90;;;;;;5072067;28;19970;-74
2023/01/10 06:10:08;;;;;;;;;;;4.30;99.90;;;;;;5072090;28;20255;-74
2023/01/10 06:12:33;;;;;;;;;;;4.40;99.90;;;;;;5056718;28;19913;-74
2023/01/10 06:14:59;;;;;;;;;;;4.40;99.90;;;;;;5001788;28;2030330;-74
2023/01/10 06:17:25;;;;;;;;;;;4.30;99.90;;;;;;5039689;28;20350;-74
2023/01/10 06:19:54;;;;;;;;;;;4.40;99.90;;;;;;5056441;28;19916;-74
2023/01/10 06:22:20;;;;;;;;;;;4.30;99.90;;;;;;5073650;28;19996;-74
2023/01/10 06:24:45;;;;;;;;;;;4.50;99.90;;;;;;5056220;28;20002;-74
2023/01/10 06:27:11;;;;;;;;;;;4.40;99.90;;;;;;5056269;28;19916;-74
2023/01/10 06:29:37;;;;;;;;;;;4.50;99.90;;;;;;5057443;28;19913;-74
2023/01/10 06:32:03;;;;;;;;;;;4.50;99.90;;;;;;5073917;28;20267;-74
2023/01/10 06:34:28;;;;;;;;;;;4.50;99.90;;;;;;5055758;28;19916;-74
2023/01/10 06:36:57;;;;;;;;;;;4.50;99.90;;;;;;5055875;28;19916;-74
2023/01/10 06:39:23;;;;;;;;;;;4.50;99.90;;;;;;5073451;28;19940;-74
2023/01/10 06:41:48;;;;;;;;;;;4.40;99.90;;;;;;5055757;28;19989;-74
2023/01/10 06:44:14;;;;;;;;;;;4.40;99.90;;;;;;5054747;28;19924;-74
2023/01/10 06:46:40;;;;;;;;;;;4.40;99.90;;;;;;5073903;28;20363;-74
2023/01/10 06:49:05;;;;;;;;;;;4.40;99.90;;;;;;5073730;28;20489;-74
2023/01/10 06:51:31;;;;;;;;;;;4.40;99.90;;;;;;5055487;28;19970;-74
2023/01/10 06:53:57;;;;;;;;;;;4.40;99.90;;;;;;5074420;28;20015;-74
2023/01/10 06:56:22;;;;;;;;;;;4.20;99.90;;;;;;5057436;28;19912;-74
2023/01/10 06:58:49;;;;;;;;;;;4.20;99.90;;;;;;5055831;28;19922;-74
2023/01/10 07:01:16;;;;;;;;;;;4.30;99.90;;;;;;5073077;28;19927;-74
2023/01/10 07:03:42;;;;;;;;;;;4.30;99.90;;;;;;5070999;28;20267;-74
2023/01/10 07:06:09;;;;;;;;;;;4.30;99.90;;;;;;5055277;28;20410;-75
2023/01/10 07:08:39;;;;;;;;;;;4.30;99.90;;;;;;5074146;28;19916;-75
2023/01/10 07:11:06;;;;;;;;;;;4.30;99.90;;;;;;5074806;28;19920;-73
2023/01/10 07:13:32;;;;;;;;;;;4.30;99.90;;;;;;5056424;28;20007;-73
2023/01/10 07:16:05;;;;;;;;;;;4.30;99.90;;;;;;5073230;28;19986;-73
2023/01/10 07:18:31;;;;;;;;;;;4.30;99.90;;;;;;5068062;28;20355;-73
2023/01/10 07:20:57;;;;;;;;;;;4.30;99.90;;;;;;5053409;28;19912;-73
2023/01/10 07:23:32;;;;;;;;;;;4.20;99.90;;;;;;5072077;28;19917;-76
2023/01/10 07:26:00;;;;;;;;;;;4.20;99.90;;;;;;5054389;28;19925;-76
2023/01/10 07:28:26;;;;;;;;;;;4.20;99.90;;;;;;5072217;28;20352;-77
2023/01/10 07:30:52;;;;;;;;;;;4.20;99.90;;;;;;5072264;28;19919;-76
2023/01/10 07:33:18;;;;;;;;;;;4.20;99.90;;;;;;5052208;28;19919;-72
2023/01/10 07:35:47;;;;;;;;;;;4.20;99.90;;;;;;5052754;28;19944;-75
2023/01/10 07:38:13;;;;;;;;;;;4.10;99.90;;;;;;5053936;28;19952;-77
2023/01/10 07:40:39;;;;;;;;;;;4.10;99.90;;;;;;5052559;28;19982;-76
2023/01/10 07:43:06;;;;;;;;;;;4.10;99.90;;;;;;5052616;28;19912;-76
2023/01/10 07:45:33;;;;;;;;;;;4.00;99.90;;;;;;5054422;28;19925;-74
2023/01/10 07:48:01;;;;;;;;;;;3.90;99.90;;;;;;5072393;28;19916;-74
2023/01/10 07:50:32;;;;;;;;;;;3.90;99.90;;;;;;5072063;28;19998;-76
2023/01/10 07:52:58;;;;;;;;;;;3.90;99.90;;;;;;5052788;28;19923;-74
2023/01/10 07:55:25;;;;;;;;;;;4.00;99.90;;;;;;5053365;28;19913;-75
2023/01/10 07:57:51;;;;;;;;;;;4.00;99.90;;;;;;5072927;28;19912;-75
2023/01/10 08:00:18;;;;;;;;;;;4.10;99.90;;;;;;5056093;28;19912;-74
2023/01/10 08:02:45;;;;;;;;;;;4.10;99.90;;;;;;5072862;28;19913;-74
2023/01/10 08:05:11;;;;;;;;;;;4.10;99.90;;;;;;5072102;28;19973;-74
2023/01/10 08:07:37;;;;;;;;;;;4.10;99.90;;;;;;5072116;28;19912;-75
2023/01/10 08:10:04;;;;;;;;;;;4.20;99.90;;;;;;5072013;28;19913;-74
2023/01/10 08:12:31;;;;;;;;;;;4.10;99.90;;;;;;5054570;28;19912;-76
2023/01/10 08:14:59;;;;;;;;;;;4.10;99.90;;;;;;5072779;28;19951;-75
2023/01/10 08:17:27;;;;;;;;;;;4.10;99.90;;;;;;5070691;28;20009;-76
2023/01/10 08:19:52;;;;;;;;;;;4.10;99.90;;;;;;5038757;28;19913;-75
2023/01/10 08:22:21;;;;;;;;;;;4.10;99.90;;;;;;5072923;28;19947;-75
2023/01/10 08:24:46;;;;;;;;;;;4.10;99.90;;;;;;5054363;28;19971;-76
2023/01/10 08:27:12;;;;;;;;;;;4.20;99.90;;;;;;5053863;28;19944;-75
2023/01/10 08:29:40;;;;;;;;;;;4.30;99.90;;;;;;5071152;28;20287;-75
2023/01/10 08:32:09;;;;;;;;;;;4.10;99.90;;;;;;5072080;28;19919;-76
2023/01/10 08:34:34;;;;;;;;;;;4.20;99.90;;;;;;5053841;28;19919;-76
2023/01/10 08:37:00;;;;;;;;;;;4.40;99.90;;;;;;5071565;28;20227;-76
2023/01/10 08:39:29;;;;;;;;;;;4.40;99.90;;;;;;5053660;28;20255;-76
2023/01/10 08:41:59;;;;;;;;;;;4.50;99.90;;;;;;5053117;28;19916;-76
2023/01/10 08:44:25;;;;;;;;;;;4.60;99.90;;;;;;5071466;28;19964;-75
2023/01/10 08:46:52;;;;;;;;;;;4.70;99.90;;;;;;5071576;28;20268;-75
2023/01/10 08:49:18;;;;;;;;;;;4.70;99.90;;;;;;5053681;28;20283;-74
2023/01/10 08:51:44;;;;;;;;;;;;;;;;;;5071899;28;19994;-75
2023/01/10 08:54:10;;;;;;;;;;;4.90;99.90;;;;;;5071639;28;20003;-77
2023/01/10 08:56:40;;;;;;;;;;;4.90;99.90;;;;;;5071420;28;19912;-75
2023/01/10 08:59:06;;;;;;;;;;;5.00;99.90;;;;;;5071577;28;19912;-75
2023/01/10 09:01:32;;;;;;;;;;;5.10;99.90;;;;;;5072948;28;19924;-74
2023/01/10 09:03:58;;;;;;;;;;;5.00;99.90;;;;;;5071547;28;19912;-73
2023/01/10 09:06:24;;;;;;;;;;;5.10;99.90;;;;;;5053036;28;19913;-73
2023/01/10 09:08:50;;;;;;;;;;;5.10;99.90;;;;;;5055567;28;20383;-74
2023/01/10 09:11:16;;;;;;;;;;;5.10;99.90;;;;;;5076197;28;20002;-74
2023/01/10 09:13:42;;;;;;;;;;;5.10;99.90;;;;;;5073743;28;19999;-73
2023/01/10 09:16:08;;;;;;;;;;;5.20;99.90;;;;;;5066683;28;20476;-73
2023/01/10 09:18:34;;;;;;;;;;;;;;;;;;5052736;28;20391;-73
2023/01/10 09:21:01;;;;;;;;;;;5.40;99.90;;;;;;5052652;28;20245;-74
2023/01/10 09:23:30;;;;;;;;;;;5.70;99.90;;;;;;5051188;28;19951;-73
2023/01/10 09:25:56;;;;;;;;;;;5.80;99.90;;;;;;5056212;28;19921;-73
2023/01/10 09:28:23;;;;;;;;;;;5.50;99.90;;;;;;5073945;28;19965;-73
2023/01/10 09:30:50;;;;;;;;;;;5.40;99.90;;;;;;5074296;28;19912;-74
2023/01/10 09:33:16;;;;;;;;;;;5.30;99.90;;;;;;5057256;28;19970;-73
2023/01/10 09:35:42;;;;;;;;;;;5.30;99.90;;;;;;5056735;28;19923;-73
2023/01/10 09:38:13;;;;;;;;;;;5.40;99.90;;;;;;5074689;28;20301;-73
2023/01/10 09:40:57;;;;;;;;;;;5.50;99.90;;;;;;5074747;28;20424;-73
2023/01/10 09:43:41;;;;;;;;;;;5.60;99.90;;;;;;5055235;28;19918;-73
2023/01/10 09:46:07;;;;;;;;;;;5.80;99.90;;;;;;5056413;28;20272;-73
2023/01/10 09:48:52;;;;;;;;;;;5.80;99.90;;;;;;5056410;28;19919;-73
2023/01/10 09:51:36;;;;;;;;;;;5.80;99.90;;;;;;5056765;28;20356;-73
2023/01/10 09:54:10;;;;;;;;;;;5.80;99.90;;;;;;5056515;28;19916;-73
2023/01/10 09:56:36;;;;;;;;;;;5.90;99.90;;;;;;5056726;28;19919;-73
2023/01/10 09:59:02;;;;;;;;;;;6.10;99.90;;;;;;5056688;28;19917;-73
2023/01/10 10:01:35;;;;;;;;;;;6.30;99.90;;;;;;5056114;28;19956;-73
2023/01/10 10:04:10;;;;;;;;;;;6.30;99.90;;;;;;5056261;28;19913;-73
2023/01/10 10:06:36;;;;;;;;;;;6.40;99.90;;;;;;5055852;28;20346;-73
2023/01/10 10:09:03;;;;;;;;;;;6.40;99.90;;;;;;5073898;28;20261;-73
2023/01/10 10:11:39;;;;;;;;;;;6.50;99.90;;;;;;5056056;28;19979;-73
2023/01/10 10:14:25;;;;;;;;;;;6.30;99.90;;;;;;5073605;28;19923;-73
2023/01/10 10:17:09;;;;;;;;;;;6.30;99.90;;;;;;5063282;28;19920;-73
2023/01/10 10:19:56;;;;;;;;;;;6.00;99.90;;;;;;5055032;28;19912;-73
2023/01/10 10:22:21;;;;;;;;;;;6.10;99.90;;;;;;5056160;28;19923;-73
2023/01/10 10:25:06;;;;;;;;;;;6.10;99.90;;;;;;5055747;28;20026;-73
2023/01/10 10:27:44;;;;;;;;;;;6.20;99.90;;;;;;5068864;28;20703;-73
2023/01/10 10:30:10;;;;;;;;;;;;;;;;;;5071112;28;19912;-73
2023/01/10 10:32:44;;;;;;;;;;;6.60;99.90;;;;;;5072426;28;19958;-73
2023/01/10 10:35:13;;;;;;;;;;;6.50;99.90;;;;;;5035937;28;19943;-73
2023/01/10 10:38:00;;;;;;;;;;;6.40;99.90;;;;;;5066981;28;19978;-73
2023/01/10 10:40:28;;;;;;;;;;;6.40;99.90;;;;;;5055088;28;19995;-73
2023/01/10 10:42:55;;;;;;;;;;;6.20;99.90;;;;;;5072945;28;19913;-73
2023/01/10 10:45:24;;;;;;;;;;;6.20;99.90;;;;;;5073400;28;19924;-73
2023/01/10 10:47:59;;;;;;;;;;;6.50;99.90;;;;;;5072178;28;19913;-73
2023/01/10 10:50:33;;;;;;;;;;;6.50;99.90;;;;;;5055378;28;20310;-73
2023/01/10 10:53:00;;;;;;;;;;;6.70;99.90;;;;;;5073286;28;19973;-74
2023/01/10 10:55:33;;;;;;;;;;;6.70;99.90;;;;;;5073049;28;19919;-73
2023/01/10 10:58:00;;;;;;;;;;;6.50;99.90;;;;;;5072408;28;19913;-73
2023/01/10 11:00:27;;;;;;;;;;;6.50;99.90;;;;;;5072519;28;19940;-73
2023/01/10 11:02:59;;;;;;;;;;;6.60;99.90;;;;;;5072393;28;19913;-73
2023/01/10 11:05:41;;;;;;;;;;;6.40;99.90;;;;;;5072310;28;19927;-73
2023/01/10 11:08:12;;;;;;;;;;;6.50;99.90;;;;;;5072517;28;19919;-73
2023/01/10 11:10:56;;;;;;;;;;;6.40;99.90;;;;;;5055473;28;19924;-73
2023/01/10 11:13:29;;;;;;;;;;;6.50;99.90;;;;;;5053902;28;20003;-73
2023/01/10 11:15:55;;;;;;;;;;;6.50;99.90;;;;;;5054189;28;19916;-73
2023/01/10 11:18:23;;;;;;;;;;;6.60;99.90;;;;;;5054667;28;19919;-73
2023/01/10 11:20:51;;;;;;;;;;;6.70;99.90;;;;;;5072890;28;19947;-73
2023/01/10 11:23:24;;;;;;;;;;;6.70;99.90;;;;;;5054779;28;19958;-73
2023/01/10 11:25:50;;;;;;;;;;;6.80;99.90;;;;;;5072900;28;20451;-73
2023/01/10 11:28:21;;;;;;;;;;;7.00;99.90;;;;;;5071802;28;19940;-73
2023/01/10 11:30:47;;;;;;;;;;;7.30;99.90;;;;;;5072727;28;19956;-73
2023/01/10 11:33:25;;;;;;;;;;;7.10;99.90;;;;;;5054615;28;19916;-73
2023/01/10 11:35:56;;;;;;;;;;;7.00;99.90;;;;;;5054869;28;19916;-73
2023/01/10 11:38:23;;;;;;;;;;;7.30;99.90;;;;;;5037649;28;19917;-73
2023/01/10 11:40:53;;;;;;;;;;;7.20;99.90;;;;;;5054950;28;20431;-73
2023/01/10 11:43:24;;;;;;;;;;;7.20;99.90;;;;;;5071877;28;19919;-73
2023/01/10 11:45:55;;;;;;;;;;;7.10;99.90;;;;;;5072453;28;20280;-73
2023/01/10 11:48:22;;;;;;;;;;;7.30;99.90;;;;;;5071553;28;19919;-73
2023/01/10 11:50:51;;;;;;;;;;;7.50;99.90;;;;;;5072610;28;20279;-73
2023/01/10 11:53:32;;;;;;;;;;;7.70;99.90;;;;;;5054591;28;19993;-73
2023/01/10 11:55:58;;;;;;;;;;;7.50;99.90;;;;;;5072323;28;19912;-73
2023/01/10 11:58:28;;;;;;;;;;;7.30;99.90;;;;;;5071286;28;20256;-73
2023/01/10 12:00:54;;;;;;;;;;;7.10;99.90;;;;;;5072067;28;19920;-73
2023/01/10 12:03:28;;;;;;;;;;;7.20;99.90;;;;;;5070804;28;19917;-73
2023/01/10 12:06:07;;;;;;;;;;;7.20;99.90;;;;;;5072492;28;19927;-73
2023/01/10 12:08:35;;;;;;;;;;;7.20;99.90;;;;;;5054671;28;19944;-73
2023/01/10 12:11:03;;;;;;;;;;;7.30;99.90;;;;;;5072351;28;19938;-73
2023/01/10 12:13:30;;;;;;;;;;;7.30;99.90;;;;;;5053168;28;19924;-73
2023/01/10 12:16:15;;;;;;;;;;;7.30;99.90;;;;;;5054265;28;19927;-73
2023/01/10 12:18:40;;;;;;;;;;;7.40;99.90;;;;;;5053810;28;19920;-73
2023/01/10 12:21:13;;;;;;;;;;;7.50;99.90;;;;;;5055568;28;19917;-73
2023/01/10 12:23:43;;;;;;;;;;;7.50;99.90;;;;;;5073557;28;19956;-74
2023/01/10 12:26:13;;;;;;;;;;;7.50;99.90;;;;;;5071265;28;19920;-74
2023/01/10 12:28:46;;;;;;;;;;;7.50;99.90;;;;;;5054149;28;19967;-74
2023/01/10 12:31:13;;;;;;;;;;;7.40;99.90;;;;;;5071674;28;20422;-74
2023/01/10 12:33:45;;;;;;;;;;;7.40;99.90;;;;;;5072028;28;19912;-74
2023/01/10 12:36:23;;;;;;;;;;;7.40;99.90;;;;;;5037581;28;20011;-74
2023/01/10 12:39:06;;;;;;;;;;;7.30;99.90;;;;;;5071998;28;19967;-74
2023/01/10 12:44:29;;;;;;;;;;;7.30;99.90;;;;;;5074717;28;19971;-74
2023/01/10 12:47:03;;;;;;;;;;;7.30;99.90;;;;;;5056927;28;19912;-73
2023/01/10 12:49:32;;;;;;;;;;;7.20;99.90;;;;;;5074781;28;19920;-73
2023/01/10 12:52:02;;;;;;;;;;;7.10;99.90;;;;;;5074950;28;19912;-74
2023/01/10 12:54:29;;;;;;;;;;;7.10;99.90;;;;;;5075294;28;20367;-74
2023/01/10 12:56:57;;;;;;;;;;;7.00;99.90;;;;;;5057107;28;20009;-74
2023/01/10 12:59:36;;;;;;;;;;;7.00;99.90;;;;;;5075250;28;19912;-74
2023/01/10 13:02:03;;;;;;;;;;;7.10;99.90;;;;;;5057350;28;20301;-74
2023/01/10 13:04:30;;;;;;;;;;;7.10;99.90;;;;;;5074823;28;20027;-74
2023/01/10 13:06:56;;;;;;;;;;;7.20;99.90;;;;;;5075355;28;19922;-74
2023/01/10 13:09:25;;;;;;;;;;;7.10;99.90;;;;;;5075083;28;19916;-74
2023/01/10 13:11:58;;;;;;;;;;;7.20;99.90;;;;;;5076551;28;19951;-73
2023/01/10 13:14:27;;;;;;;;;;;7.20;99.90;;;;;;5055632;28;19920;-74
2023/01/10 13:16:55;;;;;;;;;;;7.10;99.90;;;;;;5074956;28;20411;-74
2023/01/10 13:19:20;;;;;;;;;;;7.00;99.90;;;;;;5056887;28;19959;-73
2023/01/10 13:21:47;;;;;;;;;;;7.00;99.90;;;;;;5076085;28;19943;-74
2023/01/10 13:24:21;;;;;;;;;;;7.00;99.90;;;;;;5058184;28;19924;-74
2023/01/10 13:26:51;;;;;;;;;;;7.00;99.90;;;;;;5056377;28;19958;-73
2023/01/10 13:29:19;;;;;;;;;;;7.00;99.90;;;;;;5056136;28;19951;-74
2023/01/10 13:31:45;;;;;;;;;;;6.90;99.90;;;;;;5074605;28;19919;-74
2023/01/10 13:34:14;;;;;;;;;;;6.90;99.90;;;;;;5056303;28;19999;-75
2023/01/10 13:36:46;;;;;;;;;;;7.00;99.90;;;;;;5056293;28;20387;-72
2023/01/10 13:39:31;;;;;;;;;;;6.90;99.90;;;;;;5074125;28;20272;-74
2023/01/10 13:45:00;;;;;;;;;;;6.90;99.90;;;;;;5074556;28;19942;-73
2023/01/10 13:47:53;;;;;;;;;;;6.90;99.90;;;;;;5074024;28;20382;-74
2023/01/10 13:50:22;;;;;;;;;;;6.90;99.90;;;;;;5056639;28;19912;-74
2023/01/10 13:53:08;;;;;;;;;;;6.90;99.90;;;;;;5074387;28;19916;-75
2023/01/10 13:55:52;;;;;;;;;;;7.00;99.90;;;;;;5015180;28;20364;-74
2023/01/10 14:02:27;;;;;;;;;;;7.00;99.90;;;;;;5073965;28;19920;-74
2023/01/10 14:04:20;;;;;;;;;;;6.90;99.90;;;;;;5074137;28;19969;-73
2023/01/10 14:06:50;;;;;;;;;;;6.80;99.90;;;;;;5073630;28;19916;-73
2023/01/10 14:09:17;;;;;;;;;;;6.80;99.90;;;;;;5051330;28;19920;-73
2023/01/10 14:11:44;;;;;;;;;;;6.80;99.90;;;;;;5052040;28;19912;-73
2023/01/10 14:14:24;;;;;;;;;;;6.70;99.90;;;;;;5053443;28;20576;-73
2023/01/10 14:16:52;;;;;;;;;;;6.70;99.90;;;;;;5054329;28;19919;-73
2023/01/10 14:19:23;;;;;;;;;;;6.70;99.90;;;;;;5062799;28;19920;-73
2023/01/10 14:21:54;;;;;;;;;;;6.70;99.90;;;;;;5072813;28;20401;-73
2023/01/10 14:24:25;;;;;;;;;;;6.60;99.90;;;;;;5072303;28;19923;-74
2023/01/10 14:26:52;;;;;;;;;;;6.60;99.90;;;;;;5056797;28;19912;-71
2023/01/10 14:29:19;;;;;;;;;;;6.60;99.90;;;;;;5073825;28;19974;-72
2023/01/10 14:31:46;;;;;;;;;;;6.60;99.90;;;;;;5055647;28;19991;-72
2023/01/10 14:34:26;;;;;;;;;;;6.60;99.90;;;;;;5055565;28;19978;-73
2023/01/10 14:36:57;;;;;;;;;;;6.60;99.90;;;;;;5073536;28;19923;-72
2023/01/10 14:39:26;;;;;;;;;;;6.70;99.90;;;;;;5072413;28;19917;-72
2023/01/10 14:41:54;;;;;;;;;;;6.60;99.90;;;;;;5073523;28;19999;-73
2023/01/10 14:44:26;;;;;;;;;;;6.60;99.90;;;;;;5055529;28;19920;-71
2023/01/10 14:46:54;;;;;;;;;;;6.60;99.90;;;;;;5055677;28;19924;-73
2023/01/10 14:49:28;;;;;;;;;;;6.60;99.90;;;;;;5073142;28;19919;-73
2023/01/10 14:51:59;;;;;;;;;;;6.60;99.90;;;;;;5073239;28;19916;-73
2023/01/10 14:54:28;;;;;;;;;;;6.50;99.90;;;;;;5055608;28;19924;-73
2023/01/10 14:56:53;;;;;;;;;;;6.50;99.90;;;;;;5032282;28;19917;-72
2023/01/10 14:59:28;;;;;;;;;;;6.50;99.90;;;;;;5058990;28;19919;-72